createdAt,value
2023-03-27T00:01:31.832Z,100258.31
2023-03-27T00:06:00.666Z,100260.10
2023-03-27T00:10:31.281Z,100263.55
2023-03-27T00:15:01.610Z,100262.47
2023-03-27T00:36:27.705Z,100269.75
2023-03-27T00:40:45.994Z,100272.52
2023-03-27T00:45:23.190Z,100274.27
2023-03-27T00:49:45.224Z,100279.48
2023-03-27T00:54:15.244Z,100291.77
2023-03-27T01:11:42.486Z,100284.05
2023-03-27T01:16:14.932Z,100292.43
2023-03-27T01:35:03.656Z,100312.94
2023-03-27T01:39:36.987Z,100321.95
2023-03-27T01:43:49.253Z,100322.41
2023-03-27T02:05:50.635Z,100340.41
2023-03-27T02:10:11.304Z,100344.27
2023-03-27T02:14:45.429Z,100347.09
2023-03-27T02:19:03.649Z,100342.73
2023-03-27T02:41:17.988Z,100357.02
2023-03-27T02:46:02.883Z,100357.39
2023-03-27T02:50:39.338Z,100370.79
2023-03-27T02:55:05.559Z,100381.44
2023-03-27T02:59:29.649Z,100386.15
2023-03-27T03:04:08.974Z,100390.87
2023-03-27T03:26:22.206Z,100435.44
2023-03-27T03:30:51.929Z,100443.49
2023-03-27T03:52:42.834Z,100463.95
2023-03-27T03:57:11.938Z,100468.77
2023-03-27T04:01:43.057Z,100477.43
2023-03-27T04:23:35.096Z,100494.38
2023-03-27T04:28:06.434Z,100493.25
2023-03-27T04:32:36.371Z,100499.54
2023-03-27T04:36:48.874Z,100506.68
2023-03-27T04:41:17.884Z,100508.14
2023-03-27T05:06:08.597Z,100543.06
2023-03-27T05:10:11.314Z,100545.52
2023-03-27T05:14:38.786Z,100548.02
2023-03-27T05:18:35.670Z,100553.33
2023-03-27T05:23:05.638Z,100562.54
2023-03-27T05:27:35.204Z,100568.95
2023-03-27T05:44:43.288Z,100585.38
2023-03-27T05:49:13.422Z,100591.52
2023-03-27T05:53:45.489Z,100600.30
2023-03-27T05:57:56.661Z,100596.99
2023-03-27T06:14:39.330Z,100626.00
2023-03-27T06:18:55.846Z,100628.16
2023-03-27T06:23:25.247Z,100633.16
2023-03-27T06:27:42.267Z,100638.38
2023-03-27T06:31:31.171Z,100645.34
2023-03-27T06:38:51.160Z,100658.54
2023-03-27T06:42:38.465Z,100665.29
2023-03-27T06:46:16.513Z,100678.69
2023-03-27T06:50:37.998Z,100694.00
2023-03-27T06:53:43.795Z,100705.26
2023-03-27T06:57:01.168Z,100715.92
2023-03-27T06:59:54.815Z,100718.66
2023-03-27T07:03:48.339Z,100721.84
2023-03-27T07:11:39.899Z,100738.80
2023-03-27T07:14:32.436Z,100740.42
2023-03-27T07:17:48.709Z,100743.40
2023-03-27T07:20:58.700Z,100750.54
2023-03-27T07:23:51.575Z,100750.96
2023-03-27T07:27:00.421Z,100757.77
2023-03-27T07:30:49.424Z,100756.08
2023-03-27T07:35:00.864Z,100762.90
2023-03-27T08:17:15.578Z,100775.58
2023-03-27T08:21:45.649Z,100779.34
2023-03-27T08:43:08.500Z,100815.20
2023-03-27T08:47:58.929Z,100824.84
2023-03-27T08:52:37.228Z,100822.95
2023-03-27T09:14:51.195Z,100822.71
2023-03-27T09:19:27.330Z,100834.04
2023-03-27T09:50:18.328Z,100866.55
2023-03-27T10:08:08.740Z,100883.31
2023-03-27T10:12:50.967Z,100888.49
2023-03-27T10:17:00.833Z,100891.89
2023-03-27T10:21:35.747Z,100894.56
2023-03-27T10:26:08.062Z,100898.85
2023-03-27T11:23:08.997Z,100980.15
2023-03-27T11:27:29.105Z,100989.02
2023-03-27T11:32:14.748Z,100992.63
2023-03-27T11:45:07.204Z,100995.76
2023-03-27T12:34:40.238Z,101024.02
2023-03-27T13:04:04.311Z,101024.44
2023-03-27T13:08:30.903Z,101018.70
2023-03-27T13:13:11.485Z,101024.61
2023-03-27T13:17:46.572Z,101019.34
2023-03-27T13:22:26.238Z,101030.59
2023-03-27T13:26:56.416Z,101032.41
2023-03-27T13:48:52.373Z,101035.40
2023-03-27T13:53:08.016Z,101040.16
2023-03-27T14:01:59.679Z,101021.59
2023-03-27T14:06:26.334Z,101022.87
2023-03-27T14:15:17.387Z,101025.14
2023-03-27T14:54:26.422Z,101026.45
2023-03-27T14:58:55.761Z,101025.76
2023-03-27T15:03:14.055Z,101024.23
2023-03-27T15:37:57.164Z,101008.98
2023-03-27T15:42:32.265Z,101014.47
2023-03-27T15:47:01.150Z,101013.31
2023-03-27T15:51:38.632Z,101015.23
2023-03-27T16:13:28.588Z,101036.65
2023-03-27T16:17:55.615Z,101073.36
2023-03-27T16:21:48.230Z,101089.67
2023-03-27T16:51:28.293Z,101045.85
2023-03-27T16:55:47.200Z,101051.59
2023-03-27T17:00:17.193Z,101058.56
2023-03-27T17:21:50.065Z,101062.10
2023-03-27T17:26:18.878Z,101068.83
2023-03-27T17:31:01.134Z,101067.59
2023-03-27T17:35:07.595Z,101072.92
2023-03-27T17:56:06.991Z,101072.17
2023-03-27T18:00:40.843Z,101070.16
2023-03-27T18:05:02.996Z,101068.16
2023-03-27T18:09:32.874Z,101069.06
2023-03-27T18:13:58.524Z,101075.32
2023-03-27T18:31:13.754Z,101107.41
2023-03-27T18:35:43.278Z,101101.29
2023-03-27T18:40:12.019Z,101101.30
2023-03-27T19:01:44.503Z,101082.76
2023-03-27T19:06:14.404Z,101081.14
2023-03-27T19:37:09.310Z,101044.75
2023-03-27T20:00:00.256Z,101051.85
2023-03-27T20:04:29.516Z,101055.49
2023-03-27T20:08:58.917Z,101056.52
2023-03-27T20:13:28.790Z,101037.52
2023-03-27T20:22:24.900Z,101029.02
2023-03-27T20:26:36.134Z,101024.59
2023-03-27T20:30:35.529Z,101016.45
2023-03-27T20:57:50.714Z,100998.88
2023-03-27T21:02:19.650Z,100997.98
2023-03-27T21:06:51.817Z,100991.39
2023-03-27T21:28:33.954Z,100977.39
2023-03-27T21:33:03.779Z,100965.83
2023-03-27T21:37:34.005Z,100968.55
2023-03-27T22:03:29.285Z,100974.61
2023-03-27T22:20:19.894Z,100983.00
2023-03-27T22:24:48.677Z,100980.02
2023-03-27T22:44:10.667Z,101003.71
2023-03-27T22:48:19.290Z,101005.48
2023-03-27T22:52:48.835Z,101004.13
2023-03-27T22:57:18.787Z,101004.82
2023-03-27T23:14:44.267Z,101021.25
2023-03-27T23:19:13.011Z,101019.70
2023-03-27T23:23:42.266Z,101023.42
2023-03-27T23:28:11.201Z,101032.23
2023-03-27T23:32:40.096Z,101028.95
2023-03-27T23:54:28.084Z,101032.95
2023-03-27T23:58:56.871Z,101039.43
